Аэропорт: Абакан. Абакан

ICAO: UNAA

METAR:
2020-10-24 05:00:00
UNAA 240500Z 20002MPS 9999 -SHRA FEW007 BKN030CB 03/02 Q1019 R20/290155 NOSIG RMK QFE742
METAR:
2020-10-24 01:56:00
TAF UNAA 240156Z 2403/2503 24003MPS 9999 SCT020CB TEMPO 2403/2413 3100 -SHSNRA BKN011CB FM241300 25003G10MPS 9999 SCT015CB